Warrensburg, IL

1:00 PM CDT on September 17, 2014 (GMT -0500)
Decatur | Change Station
CLOSE
Current Station
Airport
Location: Decatur,
Elevation: 682 ft
Nearby Weather Stations

Elev 682 ft 39.83 °N, 88.87 °W | Updated 1 hour ago

Partly Cloudy
Partly Cloudy
65 °F
Feels Like 65 °F
N
8
Wind Variable Wind from South

Today
High -- | Low -- °F
--% Chance of Precip.
Yesterday
High -- | Low -- °F
Precip. -- in
6:39 AM 7:01 PM
Waning Crescent, 34% visible
Pressure 30.05 in
Visibility 10.0 miles
Clouds Few 9000 ft
Scattered Clouds 11000 ft
Dew Point 52 °F
Humidity 63%
Rainfall 0.00 in
Snow Depth Not available.
UV 6 out of 12
Pollen 5.70 out of 12
Air Quality Not available.
Flu Activity Not available.
METAR KDEC 171654Z 18007KT 150V210 10SM FEW090 SCT110 18/11 A3006 RMK AO2 SLP176 T01830111

More Conditions Fewer Conditions

Pressure 30.05 in
Visibility 10.0 miles
Clouds Few 9000 ft
Scattered Clouds 11000 ft
Dew Point 52 °F
Humidity 63%
Rainfall 0.00 in
Snow Depth Not available.
UV 6 out of 12
Pollen 5.70 out of 12
Air Quality Not available.
Flu Activity Not available.
METAR KDEC 171654Z 18007KT 150V210 10SM FEW090 SCT110 18/11 A3006 RMK AO2 SLP176 T01830111

More Conditions Fewer Conditions

10-Day Weather Forecast

Almanac

Astronomy

Sep. 17, 2014 Rise Set
Actual Time 6:39 AM CDT 7:01 PM CDT
Civil Twilight 6:12 AM CDT 7:28 PM CDT
Nautical Twilight 5:40 AM CDT 8:00 PM CDT
Astronomical Twilight 5:07 AM CDT 8:32 PM CDT
Moon 12:39 AM CDT 3:11 PM CDT
Length of Visible Light 13h 16m
Length of Day
12h 22m
Tomorrow will be 2m 35s shorter.
Waning Crescent, 34% of the Moon is Illuminated
Today
Waning Crescent
Sep 24
New
Oct 1
First Quarter
Oct 8
Full
Oct 15
Last Quarter

Today's Extremes

State Highs State Lows

Community

WunderPhotos

Upload Photos

1,754,112 photos uploaded!

Nearby

Snow Depth

Station Depth Elevation
No new snow has been reported.

Earthquake Activity

City Distance Mag. Time & Date
No recent earthquake activity has been reported nearby.
Minimum magnitude displayed is 2.5.

Coastal Water Temperatures

Place Temperature
No Stations Reporting

Nearby Weather Stations